This is the latest recevied weather packets stored in our database for station/object WC4PEM-11. If no packets are shown the sender has not sent any weather packets the latest 1 day(s).
| Time | Temp. | Humidity | Pressure | Rain* | Wind** | Luminosity | Snow |
|---|---|---|---|---|---|---|---|
| 1778047983 | 18.89° C | 87% | 1016.3 hPa | 0 mm | 0.89 m/s, 88° | - | - |
| 1778047683 | 18.89° C | 86% | 1016.2 hPa | 0 mm | 0.89 m/s, 111° | - | - |
| 1778047602 | 18.89° C | 87% | 1016.4 hPa | 0 mm | 0.89 m/s, 85° | - | - |
| 1778047383 | 18.89° C | 87% | 1016.4 hPa | 0 mm | 0.89 m/s, 85° | - | - |
| 1778047083 | 18.33° C | 87% | 1016.4 hPa | 0 mm | 0.89 m/s, 59° | - | - |
| 1778046783 | 18.33° C | 84% | 1016.4 hPa | 0 mm | 0.45 m/s, 178° | - | - |
| 1778046483 | 18.33° C | 84% | 1016.5 hPa | 0 mm | 0.45 m/s, 93° | - | - |
| 1778046183 | 18.89° C | 83% | 1016.6 hPa | 0 mm | 0.45 m/s, 93° | - | - |
| 1778045883 | 18.89° C | 84% | 1016.6 hPa | 0 mm | 0.89 m/s, 133° | - | - |
| 1778045797 | 18.89° C | 85% | 1016.5 hPa | 0 mm | 0.89 m/s, 124° | - | - |
| 1778045583 | 18.89° C | 85% | 1016.5 hPa | 0 mm | 0.89 m/s, 124° | - | - |
| 1778045436 | 18.89° C | 85% | 1016.6 hPa | 0 mm | 0.89 m/s, 103° | - | - |
| 1778045283 | 18.89° C | 85% | 1016.6 hPa | 0 mm | 0.89 m/s, 103° | - | - |
| 1778045151 | 18.89° C | 84% | 1016.6 hPa | 0 mm | 0.89 m/s, 76° | - | - |
| 1778045089 | 18.89° C | 82% | 1016.8 hPa | 0 mm | 0.45 m/s, 93° | - | - |
| 1778044983 | 18.89° C | 84% | 1016.6 hPa | 0 mm | 0.89 m/s, 76° | - | - |
| 1778044683 | 18.89° C | 82% | 1016.8 hPa | 0 mm | 0.45 m/s, 93° | - | - |
| 1778044383 | 18.89° C | 82% | 1016.8 hPa | 0 mm | 0.45 m/s, 108° | - | - |
| 1778044083 | 18.89° C | 81% | 1016.9 hPa | 0 mm | 0.89 m/s, 93° | - | - |
| 1778043783 | 19.44° C | 80% | 1016.8 hPa | 0 mm | 0.89 m/s, 76° | - | - |
| 1778043483 | 19.44° C | 79% | 1016.8 hPa | 0 mm | 0.45 m/s, 93° | - | - |
| 1778043183 | 20° C | 79% | 1016.8 hPa | 0 mm | 0.45 m/s, 61° | - | - |
| 1778042883 | 20.56° C | 78% | 1016.9 hPa | 0 mm | 0.45 m/s, 137° | - | - |
| 1778042792 | 20.56° C | 78% | 1016.9 hPa | 0 mm | 0.89 m/s, 76° | - | - |
| 1778042583 | 20.56° C | 78% | 1016.9 hPa | 0 mm | 0.89 m/s, 76° | - | - |
* Rain latest hour (hover to see other rain measurements)
** Current wind speed in m/s (hover to see current wind gust speed)